createdAt,value
2017-09-11T00:01:21.132Z,9.00
2017-09-11T00:03:47.568Z,8.33
2017-09-11T00:06:14.012Z,9.93
2017-09-11T00:08:40.463Z,7.63
2017-09-11T00:11:06.887Z,8.10
2017-09-11T00:13:33.333Z,7.50
2017-09-11T00:15:59.793Z,7.63
2017-09-11T00:18:26.963Z,8.83
2017-09-11T00:20:53.391Z,8.77
2017-09-11T00:23:19.828Z,9.70
2017-09-11T00:25:47.078Z,8.77
2017-09-11T00:28:13.697Z,10.53
2017-09-11T00:30:40.891Z,9.00
2017-09-11T00:33:07.318Z,10.23
2017-09-11T00:35:33.808Z,7.90
2017-09-11T00:38:01.007Z,7.53
2017-09-11T00:40:27.712Z,7.03
2017-09-11T00:42:54.184Z,7.70
2017-09-11T00:45:20.813Z,5.93
2017-09-11T00:47:47.258Z,7.40
2017-09-11T00:50:13.763Z,7.17
2017-09-11T00:52:41.834Z,7.17
2017-09-11T00:55:09.215Z,7.00
2017-09-11T00:57:35.979Z,7.27
2017-09-11T01:00:02.424Z,7.90
2017-09-11T01:02:28.840Z,8.30
2017-09-11T01:04:55.275Z,9.07
2017-09-11T01:07:22.073Z,8.67
2017-09-11T01:09:48.531Z,8.20
2017-09-11T01:12:15.078Z,7.97
2017-09-11T01:14:42.290Z,8.00
2017-09-11T01:17:08.704Z,7.13
2017-09-11T01:19:36.713Z,9.57
2017-09-11T01:22:03.307Z,9.90
2017-09-11T01:24:30.077Z,8.13
2017-09-11T01:26:56.548Z,8.90
2017-09-11T01:29:23.116Z,9.20
2017-09-11T01:31:50.380Z,8.30
2017-09-11T01:34:16.812Z,9.50
2017-09-11T01:36:43.979Z,9.53
2017-09-11T01:39:10.487Z,8.57
2017-09-11T01:41:37.652Z,8.87
2017-09-11T01:44:04.820Z,9.53
2017-09-11T01:46:32.168Z,7.87
2017-09-11T01:48:59.014Z,7.90
2017-09-11T01:51:25.503Z,7.80
2017-09-11T01:53:51.959Z,7.80
2017-09-11T01:56:19.240Z,8.13
2017-09-11T01:58:45.712Z,7.67
2017-09-11T02:01:12.206Z,9.40
2017-09-11T02:03:38.654Z,10.07
2017-09-11T02:06:05.075Z,7.43
2017-09-11T02:08:31.507Z,9.00
2017-09-11T02:10:57.914Z,8.50
2017-09-11T02:13:25.598Z,8.10
2017-09-11T02:15:52.021Z,9.17
2017-09-11T02:18:19.236Z,10.10
2017-09-11T02:20:46.443Z,8.27
2017-09-11T02:23:12.900Z,9.20
2017-09-11T02:25:39.322Z,11.20
2017-09-11T02:28:05.803Z,13.50
2017-09-11T02:30:32.233Z,13.93
2017-09-11T02:32:58.671Z,12.00
2017-09-11T02:35:25.985Z,12.80
2017-09-11T02:37:52.421Z,15.30
2017-09-11T02:40:20.362Z,15.07
2017-09-11T02:42:47.694Z,15.60
2017-09-11T02:45:14.931Z,13.40
2017-09-11T02:47:42.091Z,12.63
2017-09-11T02:50:09.272Z,11.80
2017-09-11T02:52:35.715Z,8.20
2017-09-11T02:55:02.159Z,8.50
2017-09-11T02:57:28.596Z,8.30
2017-09-11T02:59:55.023Z,7.17
2017-09-11T03:02:21.791Z,7.30
2017-09-11T03:04:48.981Z,7.00
2017-09-11T03:07:15.928Z,9.37
2017-09-11T03:09:43.277Z,7.00
2017-09-11T03:12:10.438Z,8.67
2017-09-11T03:14:36.871Z,9.10
2017-09-11T03:17:03.338Z,8.10
2017-09-11T03:19:29.803Z,9.70
2017-09-11T03:21:56.232Z,10.83
2017-09-11T03:24:22.816Z,10.80
2017-09-11T03:26:49.278Z,12.43
2017-09-11T03:29:15.704Z,11.20
2017-09-11T03:31:42.123Z,10.67
2017-09-11T03:34:08.540Z,10.50
2017-09-11T03:36:34.968Z,11.37
2017-09-11T03:39:01.404Z,13.57
2017-09-11T03:41:27.943Z,11.07
2017-09-11T03:43:54.395Z,11.20
2017-09-11T03:46:21.023Z,11.50
2017-09-11T03:48:47.483Z,13.57
2017-09-11T03:51:13.904Z,11.53
2017-09-11T03:53:40.331Z,14.90
2017-09-11T03:56:07.558Z,14.50
2017-09-11T03:58:34.036Z,12.70
2017-09-11T04:01:00.553Z,12.80
2017-09-11T04:03:26.983Z,11.10
2017-09-11T04:05:53.425Z,11.40
2017-09-11T04:08:19.853Z,12.37
2017-09-11T04:10:46.281Z,14.00
2017-09-11T04:13:12.716Z,13.50
2017-09-11T04:15:39.131Z,14.10
2017-09-11T04:18:05.542Z,13.23
2017-09-11T04:20:32.741Z,12.73
2017-09-11T04:23:04.484Z,13.40
2017-09-11T04:25:30.893Z,14.17
2017-09-11T04:27:58.047Z,13.63
2017-09-11T04:30:24.489Z,12.40
2017-09-11T04:32:50.931Z,11.93
2017-09-11T04:35:17.486Z,14.23
2017-09-11T04:37:43.951Z,11.17
2017-09-11T04:40:11.879Z,12.80
2017-09-11T04:42:38.377Z,11.70
2017-09-11T04:45:05.613Z,14.50
2017-09-11T04:47:32.034Z,11.80
2017-09-11T04:49:59.688Z,11.63
2017-09-11T04:52:26.110Z,15.63
2017-09-11T04:54:52.536Z,14.10
2017-09-11T04:57:19.133Z,14.20
2017-09-11T04:59:45.699Z,13.50
2017-09-11T05:02:12.164Z,16.03
2017-09-11T05:04:39.419Z,15.90
2017-09-11T05:07:07.370Z,15.87
2017-09-11T05:09:33.820Z,16.63
2017-09-11T05:12:00.258Z,19.43
2017-09-11T05:14:28.168Z,17.87
2017-09-11T05:16:55.209Z,15.63
2017-09-11T05:19:22.759Z,16.83
2017-09-11T05:21:49.309Z,16.50
2017-09-11T05:24:15.844Z,16.20
2017-09-11T05:26:42.283Z,16.87
2017-09-11T05:29:08.705Z,16.20
2017-09-11T05:31:35.932Z,16.30
2017-09-11T05:34:03.188Z,16.30
2017-09-11T05:36:29.711Z,14.90
2017-09-11T05:38:56.171Z,15.00
2017-09-11T05:41:22.920Z,14.50
2017-09-11T05:43:50.690Z,15.50
2017-09-11T05:46:17.502Z,14.30
2017-09-11T05:48:44.811Z,14.37
2017-09-11T05:51:11.336Z,14.80
2017-09-11T05:53:37.856Z,15.10
2017-09-11T05:56:04.335Z,16.67
2017-09-11T05:58:30.743Z,15.93
2017-09-11T06:00:57.171Z,15.37
2017-09-11T06:03:23.641Z,16.30
2017-09-11T06:05:50.831Z,15.27
2017-09-11T06:08:17.267Z,14.10
2017-09-11T06:10:45.439Z,14.57
2017-09-11T06:13:12.010Z,16.00
2017-09-11T06:15:38.463Z,14.43
2017-09-11T06:18:04.943Z,15.27
2017-09-11T06:20:31.395Z,21.60
2017-09-11T06:22:57.825Z,13.17
2017-09-11T06:25:24.614Z,14.70
2017-09-11T06:27:57.536Z,14.53
2017-09-11T06:30:24.204Z,13.43
2017-09-11T06:32:50.816Z,12.60
2017-09-11T06:35:17.364Z,12.77
2017-09-11T06:37:45.218Z,13.30
2017-09-11T06:40:11.902Z,13.30
2017-09-11T06:42:38.903Z,14.03
2017-09-11T06:45:05.366Z,12.97
2017-09-11T06:47:31.844Z,13.33
2017-09-11T06:49:59.026Z,12.53
2017-09-11T06:52:25.486Z,12.33
2017-09-11T06:54:51.956Z,13.17
2017-09-11T06:57:19.378Z,13.63
2017-09-11T06:59:46.596Z,13.67
2017-09-11T07:02:13.040Z,12.17
2017-09-11T07:04:40.382Z,13.10
2017-09-11T07:07:06.803Z,12.70
2017-09-11T07:09:33.994Z,12.07
2017-09-11T07:12:12.708Z,13.03
2017-09-11T07:14:39.181Z,13.90
2017-09-11T07:17:07.090Z,12.73
2017-09-11T07:19:33.506Z,14.60
2017-09-11T07:22:00.757Z,12.50
2017-09-11T07:24:27.931Z,14.80
2017-09-11T07:26:54.412Z,13.43
2017-09-11T07:29:20.867Z,13.30
2017-09-11T07:31:48.035Z,13.60
2017-09-11T07:34:15.667Z,12.90
2017-09-11T07:36:42.152Z,12.20
2017-09-11T07:39:08.635Z,13.53
2017-09-11T07:41:35.060Z,11.60
2017-09-11T07:44:01.549Z,12.60
2017-09-11T07:46:28.069Z,12.07
2017-09-11T07:48:54.503Z,11.83
2017-09-11T07:51:21.250Z,11.73
2017-09-11T07:53:47.731Z,12.13
2017-09-11T07:56:14.210Z,12.27
2017-09-11T07:58:41.815Z,12.07
2017-09-11T08:01:09.115Z,11.20
2017-09-11T08:03:35.743Z,13.60
2017-09-11T08:06:02.922Z,11.83
2017-09-11T08:08:29.348Z,11.63
2017-09-11T08:10:55.784Z,11.23
2017-09-11T08:13:22.317Z,11.60
2017-09-11T08:15:48.751Z,11.80
2017-09-11T08:18:15.287Z,11.50
2017-09-11T08:20:41.735Z,12.73
2017-09-11T08:23:08.184Z,11.63
2017-09-11T08:25:37.004Z,10.93
2017-09-11T08:28:03.675Z,10.13
2017-09-11T08:30:30.115Z,11.20
2017-09-11T08:32:56.536Z,11.87
2017-09-11T08:35:24.668Z,12.07
2017-09-11T08:37:51.079Z,11.13
2017-09-11T08:40:17.615Z,11.83
2017-09-11T08:42:44.063Z,12.63
2017-09-11T08:45:10.480Z,14.13
2017-09-11T08:47:36.892Z,13.33
2017-09-11T08:50:03.359Z,14.10
2017-09-11T08:52:29.785Z,18.47
2017-09-11T08:54:56.253Z,29.77
2017-09-11T08:57:22.964Z,84.57
2017-09-11T08:59:49.489Z,94.27
2017-09-11T09:02:16.236Z,31.30
2017-09-11T09:04:43.251Z,23.70
2017-09-11T09:07:09.679Z,22.00
2017-09-11T09:09:36.183Z,21.40
2017-09-11T09:12:02.621Z,19.27
2017-09-11T09:14:30.498Z,12.07
2017-09-11T09:16:56.931Z,15.33
2017-09-11T09:19:24.311Z,18.03
2017-09-11T09:21:50.757Z,22.03
2017-09-11T09:24:17.288Z,17.57
2017-09-11T09:26:43.736Z,16.30
2017-09-11T09:29:10.169Z,15.80
2017-09-11T09:31:36.603Z,32.33
2017-09-11T09:34:03.063Z,19.50
2017-09-11T09:36:29.496Z,23.67
2017-09-11T09:38:55.908Z,20.87
2017-09-11T09:41:22.523Z,16.53
2017-09-11T09:43:49.868Z,14.60
2017-09-11T09:46:16.565Z,15.63
2017-09-11T09:48:43.059Z,40.20
2017-09-11T09:51:09.615Z,22.43
2017-09-11T09:53:36.088Z,16.30
2017-09-11T09:56:03.299Z,14.57
2017-09-11T09:58:29.763Z,13.30
2017-09-11T10:00:57.060Z,12.93
2017-09-11T10:03:24.186Z,12.60
2017-09-11T10:05:50.783Z,12.67
2017-09-11T10:08:18.023Z,13.83
2017-09-11T10:10:44.497Z,11.83
2017-09-11T10:15:44.828Z,11.70
2017-09-11T10:18:11.285Z,12.30
2017-09-11T10:20:38.839Z,11.20
2017-09-11T10:23:05.377Z,11.80
2017-09-11T10:25:31.887Z,12.23
2017-09-11T10:27:59.073Z,11.27
2017-09-11T10:30:26.339Z,11.33
2017-09-11T10:32:52.867Z,10.53
2017-09-11T10:35:19.415Z,11.83
2017-09-11T10:37:45.849Z,9.83
2017-09-11T10:40:12.272Z,10.97
2017-09-11T10:42:38.696Z,13.10
2017-09-11T10:45:05.851Z,11.50
2017-09-11T10:47:32.628Z,11.63
2017-09-11T10:49:59.394Z,11.67
2017-09-11T10:52:27.037Z,10.40
2017-09-11T10:54:55.177Z,9.70
2017-09-11T10:57:22.619Z,10.80
2017-09-11T10:59:49.302Z,8.83
2017-09-11T11:02:16.925Z,10.97
2017-09-11T11:04:43.391Z,10.20
2017-09-11T11:07:09.911Z,10.27
2017-09-11T11:09:36.461Z,9.10
2017-09-11T11:12:02.981Z,9.83
2017-09-11T11:14:30.620Z,9.80
2017-09-11T11:16:57.116Z,9.20
2017-09-11T11:19:24.007Z,8.60
2017-09-11T11:21:50.527Z,9.30
2017-09-11T11:24:18.025Z,9.93
2017-09-11T11:26:44.543Z,9.37
2017-09-11T11:29:11.788Z,8.77
2017-09-11T11:31:38.662Z,9.10
2017-09-11T11:34:05.104Z,9.80
2017-09-11T11:36:33.034Z,8.70
2017-09-11T11:38:59.575Z,10.00
2017-09-11T11:41:26.173Z,10.73
2017-09-11T11:43:53.353Z,10.00
2017-09-11T11:46:20.150Z,9.63
2017-09-11T11:48:47.346Z,10.47
2017-09-11T11:51:13.816Z,11.23
2017-09-11T11:53:42.241Z,10.87
2017-09-11T11:56:08.941Z,10.30
2017-09-11T11:58:35.386Z,10.00
2017-09-11T12:01:01.915Z,9.90
2017-09-11T12:03:29.313Z,10.70
2017-09-11T12:05:55.812Z,11.60
2017-09-11T12:08:22.682Z,10.20
2017-09-11T12:10:49.925Z,10.10
2017-09-11T12:13:16.527Z,11.17
2017-09-11T12:15:42.964Z,10.27
2017-09-11T12:18:10.354Z,11.17
2017-09-11T12:20:37.019Z,10.83
2017-09-11T12:23:03.476Z,12.27
2017-09-11T12:25:30.587Z,11.37
2017-09-11T12:27:57.035Z,10.80
2017-09-11T12:30:23.636Z,12.00
2017-09-11T12:32:50.931Z,12.10
2017-09-11T12:35:17.564Z,15.43
2017-09-11T12:37:44.728Z,13.87
2017-09-11T12:40:11.187Z,12.63
2017-09-11T12:42:37.924Z,12.47
2017-09-11T12:45:06.252Z,12.73
2017-09-11T12:47:32.965Z,13.40
2017-09-11T12:49:59.403Z,13.57
2017-09-11T12:52:26.459Z,13.47
2017-09-11T12:54:53.628Z,12.43
2017-09-11T12:57:20.869Z,13.27
2017-09-11T12:59:47.333Z,13.40
2017-09-11T13:02:13.811Z,13.37
2017-09-11T13:04:40.338Z,13.77
2017-09-11T13:07:06.780Z,14.13
2017-09-11T13:09:34.849Z,13.37
2017-09-11T13:12:01.373Z,14.60
2017-09-11T13:14:27.949Z,13.70
2017-09-11T13:16:54.848Z,13.23
2017-09-11T13:19:21.325Z,13.80
2017-09-11T13:21:47.788Z,13.60
2017-09-11T13:24:14.529Z,15.40
2017-09-11T13:26:40.992Z,15.23
2017-09-11T13:29:07.937Z,17.37
2017-09-11T13:31:35.735Z,14.60
2017-09-11T13:34:02.920Z,16.27
2017-09-11T13:36:29.351Z,16.50
2017-09-11T13:38:55.809Z,16.47
2017-09-11T13:41:22.741Z,16.30
2017-09-11T13:43:49.608Z,17.03
2017-09-11T13:46:16.039Z,16.73
2017-09-11T13:48:42.459Z,16.00
2017-09-11T13:51:08.879Z,18.33
2017-09-11T13:53:35.817Z,24.00
2017-09-11T13:56:03.499Z,18.13
2017-09-11T13:58:30.281Z,17.50
2017-09-11T14:00:56.733Z,17.17
2017-09-11T14:03:24.545Z,16.20
2017-09-11T14:05:51.049Z,17.03
2017-09-11T14:08:18.845Z,16.10
2017-09-11T14:10:45.319Z,17.30
2017-09-11T14:13:11.865Z,17.83
2017-09-11T14:15:39.023Z,17.07
2017-09-11T14:18:06.192Z,29.30
2017-09-11T14:20:33.651Z,23.53
2017-09-11T14:23:01.002Z,39.60
2017-09-11T14:25:27.627Z,29.40
2017-09-11T14:27:54.789Z,22.70
2017-09-11T14:30:21.276Z,22.30
2017-09-11T14:32:47.972Z,22.20
2017-09-11T14:35:14.456Z,22.40
2017-09-11T14:37:40.885Z,19.17
2017-09-11T14:40:07.312Z,22.40
2017-09-11T14:42:33.719Z,21.50
2017-09-11T14:45:00.173Z,21.97
2017-09-11T14:47:26.590Z,19.87
2017-09-11T14:49:53.917Z,20.83
2017-09-11T14:52:21.173Z,18.03
2017-09-11T14:54:47.686Z,19.83
2017-09-11T14:57:14.894Z,19.83
2017-09-11T14:59:41.355Z,19.43
2017-09-11T15:02:07.795Z,21.60
2017-09-11T15:04:34.291Z,21.37
2017-09-11T15:07:00.684Z,19.17
2017-09-11T15:09:27.863Z,17.07
2017-09-11T15:11:54.274Z,18.03
2017-09-11T15:14:22.571Z,15.60
2017-09-11T15:16:49.143Z,15.03
2017-09-11T15:19:15.634Z,16.30
2017-09-11T15:21:42.079Z,14.80
2017-09-11T15:24:08.523Z,15.27
2017-09-11T15:26:34.976Z,12.10
2017-09-11T15:29:01.716Z,10.37
2017-09-11T15:31:29.018Z,9.30
2017-09-11T15:33:55.567Z,5.73
2017-09-11T15:36:22.053Z,6.30
2017-09-11T15:38:50.158Z,6.30
2017-09-11T15:41:18.383Z,6.30
2017-09-11T15:43:45.788Z,8.23
2017-09-11T15:46:12.195Z,13.67
2017-09-11T15:48:38.769Z,17.60
2017-09-11T15:51:05.211Z,10.90
2017-09-11T15:53:31.795Z,7.10
2017-09-11T15:55:59.158Z,6.23
2017-09-11T15:58:25.660Z,6.83
2017-09-11T16:00:52.123Z,6.23
2017-09-11T16:03:19.388Z,17.70
2017-09-11T16:05:46.657Z,25.40
2017-09-11T16:08:13.428Z,19.60
2017-09-11T16:10:40.011Z,17.73
2017-09-11T16:13:06.482Z,6.50
2017-09-11T16:15:33.007Z,6.20
2017-09-11T16:17:59.463Z,6.53
2017-09-11T16:20:25.906Z,6.73
2017-09-11T16:22:52.326Z,5.93
2017-09-11T16:25:18.871Z,6.33
2017-09-11T16:27:45.388Z,6.83
2017-09-11T16:30:12.004Z,6.23
2017-09-11T16:32:40.084Z,13.10
2017-09-11T16:35:06.531Z,9.87
2017-09-11T16:37:33.016Z,5.87
2017-09-11T16:40:00.232Z,6.80
2017-09-11T16:42:26.645Z,7.07
2017-09-11T16:44:53.033Z,10.37
2017-09-11T16:47:19.449Z,9.13
2017-09-11T16:49:45.856Z,7.90
2017-09-11T16:52:12.257Z,8.73
2017-09-11T16:54:39.425Z,6.20
2017-09-11T16:57:05.879Z,6.43
2017-09-11T16:59:32.293Z,7.00
2017-09-11T17:01:58.717Z,8.40
2017-09-11T17:04:25.851Z,7.23
2017-09-11T17:06:52.318Z,7.77
2017-09-11T17:09:18.794Z,8.97
2017-09-11T17:11:46.908Z,8.63
2017-09-11T17:14:13.309Z,8.30
2017-09-11T17:16:39.698Z,8.60
2017-09-11T17:19:06.065Z,8.00
2017-09-11T17:21:32.462Z,9.47
2017-09-11T17:23:58.813Z,9.10
2017-09-11T17:26:25.816Z,9.10
2017-09-11T17:28:52.249Z,10.37
2017-09-11T17:31:18.799Z,12.77
2017-09-11T17:33:45.223Z,12.73
2017-09-11T17:36:11.638Z,9.63
2017-09-11T17:38:38.079Z,8.63
2017-09-11T17:41:04.499Z,8.90
2017-09-11T17:43:30.917Z,9.40
2017-09-11T17:45:57.903Z,10.57
2017-09-11T17:48:24.457Z,10.97
2017-09-11T17:50:50.876Z,13.50
2017-09-11T17:53:17.383Z,13.60
2017-09-11T17:55:43.914Z,13.97
2017-09-11T17:58:10.552Z,12.23
2017-09-11T18:00:37.721Z,11.83
2017-09-11T18:03:04.096Z,10.10
2017-09-11T18:05:30.514Z,10.53
2017-09-11T18:07:56.948Z,12.30
2017-09-11T18:10:23.349Z,12.43
2017-09-11T18:12:51.841Z,12.53
2017-09-11T18:15:18.388Z,13.37
2017-09-11T18:17:44.806Z,12.10
2017-09-11T18:20:11.209Z,12.20
2017-09-11T18:22:38.310Z,12.47
2017-09-11T18:25:04.827Z,11.30
2017-09-11T18:27:31.856Z,13.77
2017-09-11T18:29:59.999Z,12.70
2017-09-11T18:32:28.013Z,14.20
2017-09-11T18:34:54.401Z,10.93
2017-09-11T18:37:21.815Z,11.27
2017-09-11T18:39:49.081Z,11.00
2017-09-11T18:42:16.326Z,10.70
2017-09-11T18:44:42.808Z,10.90
2017-09-11T18:47:10.068Z,11.47
2017-09-11T18:49:36.907Z,12.30
2017-09-11T18:52:03.653Z,13.10
2017-09-11T18:54:31.321Z,10.23
2017-09-11T18:56:58.091Z,11.47
2017-09-11T18:59:24.522Z,9.70
2017-09-11T19:01:50.954Z,10.00
2017-09-11T19:04:17.399Z,9.33
2017-09-11T19:06:44.184Z,10.13
2017-09-11T19:09:11.372Z,9.80
2017-09-11T19:11:38.241Z,10.27
2017-09-11T19:14:05.441Z,11.50
2017-09-11T19:16:31.883Z,12.47
2017-09-11T19:18:58.285Z,11.70
2017-09-11T19:21:26.012Z,11.43
2017-09-11T19:23:53.192Z,12.70
2017-09-11T19:26:21.458Z,11.00
2017-09-11T19:28:47.887Z,12.03
2017-09-11T19:31:14.353Z,10.80
2017-09-11T19:33:41.799Z,12.07
2017-09-11T19:36:08.936Z,11.10
2017-09-11T19:38:35.385Z,10.80
2017-09-11T19:41:02.558Z,11.07
2017-09-11T19:43:29.063Z,12.63
2017-09-11T19:45:56.314Z,12.53
2017-09-11T19:48:23.611Z,14.40
2017-09-11T19:50:50.206Z,13.63
2017-09-11T19:53:16.883Z,14.40
2017-09-11T19:55:43.327Z,12.90
2017-09-11T19:58:10.049Z,12.00
2017-09-11T20:00:36.681Z,12.30
2017-09-11T20:03:03.218Z,12.03
2017-09-11T20:05:30.683Z,12.60
2017-09-11T20:07:57.092Z,13.60
2017-09-11T20:10:24.421Z,15.30
2017-09-11T20:12:51.612Z,17.60
2017-09-11T20:15:20.143Z,17.57
2017-09-11T20:17:47.789Z,15.87
2017-09-11T20:20:14.224Z,15.13
2017-09-11T20:22:40.629Z,14.20
2017-09-11T20:25:07.089Z,14.57
2017-09-11T20:27:33.934Z,11.90
2017-09-11T20:30:01.965Z,11.30
2017-09-11T20:32:28.360Z,14.00
2017-09-11T20:34:54.750Z,12.93
2017-09-11T20:37:21.913Z,13.40
2017-09-11T20:39:48.365Z,12.77
2017-09-11T20:42:15.986Z,12.37
2017-09-11T20:44:42.779Z,12.90
2017-09-11T20:47:09.934Z,10.60
2017-09-11T20:49:36.345Z,11.10
2017-09-11T20:52:02.745Z,10.83
2017-09-11T20:54:29.181Z,10.20
2017-09-11T20:56:55.577Z,11.27
2017-09-11T20:59:22.700Z,9.83
2017-09-11T21:01:49.874Z,11.70
2017-09-11T21:04:16.265Z,12.37
2017-09-11T21:06:42.685Z,10.00
2017-09-11T21:09:09.515Z,10.83
2017-09-11T21:11:35.880Z,11.23
2017-09-11T21:14:02.271Z,9.70
2017-09-11T21:16:28.699Z,11.70
2017-09-11T21:18:55.093Z,12.37
2017-09-11T21:21:22.106Z,10.43
2017-09-11T21:23:48.592Z,10.30
2017-09-11T21:26:14.991Z,10.60
2017-09-11T21:28:41.645Z,9.87
2017-09-11T21:31:08.041Z,7.50
2017-09-11T21:33:34.437Z,8.10
2017-09-11T21:36:01.593Z,7.17
2017-09-11T21:38:28.705Z,7.10
2017-09-11T21:40:55.153Z,6.43
2017-09-11T21:43:21.918Z,8.73
2017-09-11T21:45:48.372Z,7.10
2017-09-11T21:48:14.745Z,7.60
2017-09-11T21:50:41.134Z,8.67
2017-09-11T21:53:07.562Z,6.77
2017-09-11T21:55:34.005Z,8.00
2017-09-11T21:58:00.413Z,7.83
2017-09-11T22:00:27.542Z,7.53
2017-09-11T22:02:53.938Z,7.83
2017-09-11T22:05:20.726Z,7.73
2017-09-11T22:07:47.153Z,7.93
2017-09-11T22:10:13.521Z,7.40
2017-09-11T22:12:46.338Z,7.67
2017-09-11T22:15:12.795Z,7.87
2017-09-11T22:17:39.185Z,7.23
2017-09-11T22:20:05.572Z,7.63
2017-09-11T22:22:31.992Z,7.33
2017-09-11T22:24:58.378Z,7.30
2017-09-11T22:27:25.097Z,8.73
2017-09-11T22:29:51.533Z,8.27
2017-09-11T22:32:17.917Z,6.93
2017-09-11T22:34:44.314Z,5.13
2017-09-11T22:37:10.722Z,6.43
2017-09-11T22:39:37.842Z,4.80
2017-09-11T22:42:04.237Z,5.30
2017-09-11T22:44:30.649Z,4.80
2017-09-11T22:46:57.036Z,4.53
2017-09-11T22:49:23.485Z,3.60
2017-09-11T22:51:51.765Z,3.97
2017-09-11T22:54:18.346Z,4.57
2017-09-11T22:56:44.717Z,5.10
2017-09-11T22:59:11.097Z,4.77
2017-09-11T23:01:54.550Z,4.87
2017-09-11T23:04:20.963Z,4.67
2017-09-11T23:06:47.414Z,5.47
2017-09-11T23:09:14.381Z,4.53
2017-09-11T23:11:40.986Z,5.90
2017-09-11T23:14:07.361Z,6.30
2017-09-11T23:16:34.485Z,5.40
2017-09-11T23:19:00.925Z,5.43
2017-09-11T23:21:27.322Z,6.77
2017-09-11T23:23:53.714Z,6.27
2017-09-11T23:26:21.544Z,6.20
2017-09-11T23:28:48.714Z,5.80
2017-09-11T23:31:15.141Z,6.20
2017-09-11T23:33:41.593Z,6.50
2017-09-11T23:36:08.314Z,5.70
2017-09-11T23:38:34.693Z,5.50
2017-09-11T23:41:01.839Z,5.60
2017-09-11T23:43:28.964Z,5.50
2017-09-11T23:45:55.349Z,6.70
2017-09-11T23:48:22.912Z,6.97
2017-09-11T23:50:49.350Z,7.97
2017-09-11T23:53:15.895Z,6.53
2017-09-11T23:55:42.303Z,6.63
2017-09-11T23:58:08.710Z,6.50
